createdAt,value
2023-02-13T00:00:19.679Z,15.00
2023-02-13T00:02:46.336Z,15.10
2023-02-13T00:05:12.834Z,14.43
2023-02-13T00:07:39.447Z,14.45
2023-02-13T00:10:06.876Z,15.18
2023-02-13T00:12:35.837Z,15.18
2023-02-13T00:15:02.676Z,15.20
2023-02-13T00:17:29.336Z,17.38
2023-02-13T00:19:55.812Z,17.60
2023-02-13T00:22:22.289Z,15.88
2023-02-13T00:24:51.287Z,16.02
2023-02-13T00:27:20.162Z,14.40
2023-02-13T00:29:47.120Z,15.40
2023-02-13T00:32:14.868Z,15.02
2023-02-13T00:34:41.385Z,14.75
2023-02-13T00:37:07.851Z,15.43
2023-02-13T00:39:34.263Z,16.27
2023-02-13T00:42:00.721Z,15.93
2023-02-13T00:44:29.813Z,15.95
2023-02-13T00:46:56.264Z,15.75
2023-02-13T00:49:22.809Z,16.75
2023-02-13T00:51:51.612Z,17.50
2023-02-13T00:54:18.103Z,16.92
2023-02-13T00:56:44.577Z,16.75
2023-02-13T00:59:11.117Z,17.27
2023-02-13T01:01:37.720Z,16.67
2023-02-13T01:04:04.275Z,16.27
2023-02-13T01:06:30.772Z,17.30
2023-02-13T01:08:57.226Z,15.70
2023-02-13T01:11:23.828Z,14.88
2023-02-13T01:13:50.269Z,16.35
2023-02-13T01:16:17.893Z,14.82
2023-02-13T01:18:44.647Z,14.32
2023-02-13T01:21:17.721Z,13.60
2023-02-13T01:23:44.777Z,14.52
2023-02-13T01:26:16.660Z,13.68
2023-02-13T01:28:43.284Z,14.48
2023-02-13T01:31:09.844Z,13.65
2023-02-13T01:33:36.425Z,13.45
2023-02-13T01:36:11.028Z,13.65
2023-02-13T01:38:37.978Z,13.95
2023-02-13T01:41:04.613Z,12.52
2023-02-13T01:44:04.029Z,13.60
2023-02-13T01:46:30.556Z,13.23
2023-02-13T01:49:05.472Z,13.80
2023-02-13T01:51:35.262Z,13.73
2023-02-13T01:54:10.487Z,13.18
2023-02-13T01:56:50.369Z,13.82
2023-02-13T01:59:21.009Z,13.98
2023-02-13T02:01:48.042Z,14.93
2023-02-13T02:04:20.008Z,13.38
2023-02-13T02:06:51.955Z,15.48
2023-02-13T02:09:24.242Z,14.75
2023-02-13T02:11:56.555Z,13.75
2023-02-13T02:14:23.149Z,14.00
2023-02-13T02:16:49.646Z,14.07
2023-02-13T02:19:44.839Z,14.30
2023-02-13T02:22:49.273Z,14.27
2023-02-13T02:28:03.134Z,13.45
2023-02-13T02:31:22.101Z,12.95
2023-02-13T02:33:57.517Z,12.75
2023-02-13T02:36:57.661Z,13.18
2023-02-13T02:39:38.064Z,13.55
2023-02-13T02:42:28.602Z,14.38
2023-02-13T02:45:01.413Z,14.32
2023-02-13T02:48:09.743Z,13.57
2023-02-13T02:50:43.665Z,14.20
2023-02-13T02:53:37.747Z,14.30
2023-02-13T02:56:15.100Z,13.63
2023-02-13T02:59:05.158Z,13.82
2023-02-13T03:01:53.013Z,12.93
2023-02-13T03:04:44.327Z,13.88
2023-02-13T03:07:14.975Z,13.82
2023-02-13T03:10:05.755Z,13.75
2023-02-13T03:13:06.794Z,14.20
2023-02-13T03:15:35.943Z,13.98
2023-02-13T03:18:20.854Z,14.52
2023-02-13T03:21:29.943Z,13.90
2023-02-13T03:24:09.879Z,14.07
2023-02-13T03:26:52.039Z,14.80
2023-02-13T03:29:52.460Z,15.10
2023-02-13T03:32:33.476Z,15.27
2023-02-13T03:35:27.853Z,14.57
2023-02-13T03:38:00.934Z,15.25
2023-02-13T03:40:59.708Z,16.75
2023-02-13T03:43:32.863Z,15.95
2023-02-13T03:46:02.485Z,16.92
2023-02-13T03:48:56.880Z,18.02
2023-02-13T03:51:53.534Z,17.98
2023-02-13T03:54:49.147Z,18.02
2023-02-13T03:57:38.517Z,17.98
2023-02-13T04:00:11.404Z,17.33
2023-02-13T04:02:45.171Z,16.73
2023-02-13T04:05:17.451Z,17.33
2023-02-13T04:07:44.631Z,17.27
2023-02-13T04:10:17.518Z,16.55
2023-02-13T04:12:59.139Z,17.63
2023-02-13T04:16:04.388Z,16.58
2023-02-13T04:18:33.083Z,16.73
2023-02-13T04:21:07.438Z,15.85
2023-02-13T04:23:36.044Z,15.98
2023-02-13T04:26:07.980Z,15.48
2023-02-13T04:28:34.615Z,16.27
2023-02-13T04:31:01.681Z,16.40
2023-02-13T04:33:28.560Z,16.60
2023-02-13T04:35:55.224Z,15.50
2023-02-13T04:38:21.795Z,16.67
2023-02-13T04:40:50.539Z,16.52
2023-02-13T04:43:17.095Z,16.98
2023-02-13T04:45:43.648Z,16.85
2023-02-13T04:48:10.249Z,16.67
2023-02-13T04:50:36.820Z,16.90
2023-02-13T04:53:03.405Z,16.17
2023-02-13T04:55:30.456Z,17.50
2023-02-13T04:57:57.249Z,16.88
2023-02-13T05:00:26.295Z,16.77
2023-02-13T05:02:52.976Z,16.05
2023-02-13T05:05:20.597Z,16.98
2023-02-13T05:07:47.127Z,17.75
2023-02-13T05:10:13.907Z,19.13
2023-02-13T05:12:40.474Z,16.65
2023-02-13T05:15:07.458Z,16.55
2023-02-13T05:17:33.984Z,17.25
2023-02-13T05:20:00.637Z,17.75
2023-02-13T05:22:48.273Z,17.80
2023-02-13T05:25:14.812Z,17.75
2023-02-13T05:27:41.422Z,18.45
2023-02-13T05:30:08.520Z,18.48
2023-02-13T05:32:35.058Z,19.13
2023-02-13T05:35:04.047Z,19.58
2023-02-13T05:37:34.011Z,21.92
2023-02-13T05:40:00.560Z,20.60
2023-02-13T05:42:27.247Z,21.15
2023-02-13T05:44:53.810Z,21.55
2023-02-13T05:47:20.365Z,21.77
2023-02-13T05:49:46.886Z,20.08
2023-02-13T05:52:13.537Z,19.92
2023-02-13T05:54:42.129Z,19.80
2023-02-13T05:57:08.754Z,19.35
2023-02-13T05:59:35.317Z,19.65
2023-02-13T06:02:01.840Z,19.33
2023-02-13T06:04:28.396Z,18.95
2023-02-13T06:06:54.933Z,19.25
2023-02-13T06:09:22.002Z,19.13
2023-02-13T06:11:48.943Z,19.88
2023-02-13T06:14:15.647Z,19.67
2023-02-13T06:16:42.505Z,19.10
2023-02-13T06:19:09.340Z,19.85
2023-02-13T06:21:38.005Z,19.20
2023-02-13T06:24:08.235Z,19.90
2023-02-13T06:26:35.224Z,20.45
2023-02-13T06:29:01.794Z,20.42
2023-02-13T06:31:30.684Z,21.83
2023-02-13T06:34:00.221Z,20.05
2023-02-13T06:36:26.794Z,18.67
2023-02-13T06:38:56.388Z,20.73
2023-02-13T06:41:23.006Z,26.23
2023-02-13T06:43:49.566Z,25.42
2023-02-13T06:46:16.102Z,29.77
2023-02-13T06:48:42.696Z,22.33
2023-02-13T06:51:09.260Z,21.35
2023-02-13T06:53:35.814Z,21.60
2023-02-13T06:56:06.311Z,22.45
2023-02-13T06:58:34.043Z,19.42
2023-02-13T07:01:00.888Z,19.20
2023-02-13T07:03:27.724Z,18.52
2023-02-13T07:05:57.034Z,20.58
2023-02-13T07:08:23.618Z,20.30
2023-02-13T07:10:52.394Z,19.25
2023-02-13T07:13:18.924Z,19.10
2023-02-13T07:15:45.932Z,19.90
2023-02-13T07:18:12.562Z,19.88
2023-02-13T07:20:39.303Z,20.10
2023-02-13T07:23:07.356Z,20.27
2023-02-13T07:25:34.280Z,18.25
2023-02-13T07:28:05.478Z,19.40
2023-02-13T07:30:33.005Z,17.83
2023-02-13T07:33:03.659Z,18.73
2023-02-13T07:35:30.929Z,19.98
2023-02-13T07:37:57.517Z,17.38
2023-02-13T07:40:24.058Z,18.58
2023-02-13T07:42:50.590Z,19.35
2023-02-13T07:45:17.269Z,19.30
2023-02-13T07:47:44.128Z,19.17
2023-02-13T07:50:14.165Z,19.02
2023-02-13T07:52:42.992Z,18.48
2023-02-13T07:55:11.604Z,18.38
2023-02-13T07:57:38.206Z,17.98
2023-02-13T08:00:05.484Z,18.90
2023-02-13T08:02:32.084Z,18.98
2023-02-13T08:04:58.616Z,19.05
2023-02-13T08:07:25.175Z,21.20
2023-02-13T08:10:10.259Z,23.05
2023-02-13T08:12:36.952Z,23.98
2023-02-13T08:15:04.209Z,25.58
2023-02-13T08:17:30.767Z,24.67
2023-02-13T08:19:57.739Z,23.90
2023-02-13T08:22:24.227Z,24.65
2023-02-13T08:24:50.733Z,24.50
2023-02-13T08:27:17.276Z,23.17
2023-02-13T08:29:43.941Z,23.73
2023-02-13T08:32:12.665Z,23.20
2023-02-13T08:34:42.530Z,23.77
2023-02-13T08:37:09.059Z,24.02
2023-02-13T08:39:35.566Z,22.40
2023-02-13T08:42:02.177Z,24.80
2023-02-13T08:44:28.852Z,23.55
2023-02-13T08:46:56.147Z,24.42
2023-02-13T08:49:23.535Z,25.95
2023-02-13T08:51:50.886Z,24.42
2023-02-13T08:54:17.481Z,23.23
2023-02-13T08:56:44.003Z,25.98
2023-02-13T08:59:10.438Z,28.08
2023-02-13T09:01:36.995Z,27.98
2023-02-13T09:04:03.604Z,27.73
2023-02-13T09:06:30.242Z,29.63
2023-02-13T09:08:56.709Z,28.35
2023-02-13T09:11:23.577Z,28.05
2023-02-13T09:13:53.382Z,26.38
2023-02-13T09:16:19.981Z,28.15
2023-02-13T09:18:51.132Z,28.13
2023-02-13T09:21:19.786Z,28.00
2023-02-13T09:23:46.316Z,27.70
2023-02-13T09:26:15.312Z,28.95
2023-02-13T09:28:42.888Z,28.13
2023-02-13T09:31:15.271Z,28.15
2023-02-13T09:33:45.200Z,29.42
2023-02-13T09:36:19.235Z,28.30
2023-02-13T09:38:47.529Z,28.92
2023-02-13T09:41:25.252Z,31.50
2023-02-13T09:44:36.375Z,30.85
2023-02-13T09:47:11.755Z,31.27
2023-02-13T09:49:44.127Z,32.70
2023-02-13T09:52:10.773Z,31.38
2023-02-13T09:54:39.868Z,32.13
2023-02-13T09:57:31.376Z,33.70
2023-02-13T10:00:23.967Z,33.60
2023-02-13T10:02:56.514Z,33.03
2023-02-13T10:05:57.669Z,32.42
2023-02-13T10:09:12.845Z,32.33
2023-02-13T10:11:45.509Z,31.88
2023-02-13T10:14:18.641Z,35.55
2023-02-13T10:16:55.802Z,34.47
2023-02-13T10:19:37.263Z,32.85
2023-02-13T10:22:23.523Z,34.30
2023-02-13T10:25:20.486Z,34.85
2023-02-13T10:27:52.497Z,36.80
2023-02-13T10:30:22.349Z,36.30
2023-02-13T10:33:19.411Z,36.95
2023-02-13T10:35:59.353Z,38.83
2023-02-13T10:38:35.921Z,37.65
2023-02-13T10:41:24.058Z,39.17
2023-02-13T10:44:07.943Z,38.38
2023-02-13T10:49:57.233Z,41.22
2023-02-13T10:52:43.573Z,38.80
2023-02-13T10:55:40.960Z,42.35
2023-02-13T10:58:26.140Z,41.05
2023-02-13T11:01:00.630Z,41.33
2023-02-13T11:03:29.524Z,45.10
2023-02-13T11:05:58.199Z,45.35
2023-02-13T11:08:39.801Z,44.58
2023-02-13T11:11:39.932Z,46.00
2023-02-13T11:14:14.466Z,45.00
2023-02-13T11:17:09.730Z,46.00
2023-02-13T11:19:51.567Z,48.67
2023-02-13T11:22:42.454Z,51.17
2023-02-13T11:25:31.179Z,51.25
2023-02-13T11:28:19.336Z,49.15
2023-02-13T11:30:45.833Z,48.88
2023-02-13T11:33:23.059Z,47.72
2023-02-13T11:35:49.550Z,49.60
2023-02-13T11:38:16.080Z,48.33
2023-02-13T11:40:45.096Z,48.80
2023-02-13T11:43:35.283Z,51.30
2023-02-13T11:46:04.835Z,53.05
2023-02-13T11:48:34.110Z,53.35
2023-02-13T11:51:01.174Z,50.08
2023-02-13T11:53:31.692Z,51.78
2023-02-13T11:56:11.830Z,51.10
2023-02-13T11:58:39.212Z,55.90
2023-02-13T12:01:10.403Z,51.80
2023-02-13T12:03:38.746Z,53.95
2023-02-13T12:06:12.971Z,54.22
2023-02-13T12:08:41.404Z,53.00
2023-02-13T12:11:31.157Z,55.30
2023-02-13T12:13:58.136Z,53.92
2023-02-13T12:16:40.208Z,53.03
2023-02-13T12:19:13.194Z,49.10
2023-02-13T12:21:50.150Z,51.00
2023-02-13T12:24:19.627Z,48.65
2023-02-13T12:26:52.379Z,45.72
2023-02-13T12:29:57.231Z,38.40
2023-02-13T12:32:35.392Z,42.33
2023-02-13T12:35:47.486Z,36.97
2023-02-13T12:38:33.594Z,33.55
2023-02-13T12:41:18.814Z,32.97
2023-02-13T12:44:26.311Z,31.52
2023-02-13T12:47:06.805Z,29.58
2023-02-13T12:49:48.137Z,28.95
2023-02-13T12:52:33.200Z,28.98
2023-02-13T12:55:30.238Z,28.65
2023-02-13T12:58:05.774Z,28.90
2023-02-13T13:00:45.904Z,28.75
2023-02-13T13:03:34.388Z,27.40
2023-02-13T13:06:19.670Z,27.65
2023-02-13T13:09:13.605Z,26.63
2023-02-13T13:11:43.111Z,25.35
2023-02-13T13:14:23.942Z,24.55
2023-02-13T13:17:02.059Z,23.25
2023-02-13T13:19:56.865Z,22.88
2023-02-13T13:22:27.885Z,21.67
2023-02-13T13:25:14.301Z,20.23
2023-02-13T13:27:45.541Z,21.63
2023-02-13T13:30:28.788Z,20.63
2023-02-13T13:33:04.980Z,20.35
2023-02-13T13:35:37.877Z,20.17
2023-02-13T13:38:25.369Z,21.43
2023-02-13T13:41:18.085Z,20.92
2023-02-13T13:44:15.027Z,21.20
2023-02-13T13:46:58.458Z,21.05
2023-02-13T13:49:34.188Z,21.00
2023-02-13T13:52:21.618Z,23.95
2023-02-13T13:54:54.245Z,21.65
2023-02-13T13:57:24.551Z,20.30
2023-02-13T14:00:10.489Z,20.83
2023-02-13T14:02:52.124Z,27.83
2023-02-13T14:05:27.419Z,21.42
2023-02-13T14:08:06.361Z,21.77
2023-02-13T14:10:33.078Z,21.05
2023-02-13T14:13:02.626Z,21.35
2023-02-13T14:15:38.200Z,20.73
2023-02-13T14:18:19.161Z,21.23
2023-02-13T14:20:51.628Z,21.38
2023-02-13T14:23:36.581Z,20.80
2023-02-13T14:26:15.133Z,21.35
2023-02-13T14:28:57.123Z,21.08
2023-02-13T14:31:28.956Z,20.40
2023-02-13T14:33:58.319Z,19.20
2023-02-13T14:36:32.262Z,19.95
2023-02-13T14:39:22.999Z,21.25
2023-02-13T14:41:55.333Z,19.20
2023-02-13T14:44:37.384Z,19.08
2023-02-13T14:47:35.130Z,78.60
2023-02-13T14:50:04.867Z,21.52
2023-02-13T14:52:46.515Z,20.45
2023-02-13T14:55:34.327Z,20.50
2023-02-13T14:58:07.685Z,21.23
2023-02-13T15:00:43.093Z,23.10
2023-02-13T15:03:25.066Z,22.48
2023-02-13T15:05:54.368Z,23.38
2023-02-13T15:08:24.134Z,21.17
2023-02-13T15:10:53.471Z,22.10
2023-02-13T15:13:33.179Z,21.98
2023-02-13T15:16:05.333Z,28.67
2023-02-13T15:18:40.831Z,25.25
2023-02-13T15:21:18.711Z,23.83
2023-02-13T15:23:55.521Z,21.65
2023-02-13T15:26:24.346Z,21.15
2023-02-13T15:29:25.930Z,22.40
2023-02-13T15:31:56.193Z,21.33
2023-02-13T15:34:24.680Z,24.13
2023-02-13T15:36:52.165Z,23.67
2023-02-13T15:39:23.936Z,23.55
2023-02-13T15:41:58.161Z,25.05
2023-02-13T15:44:36.671Z,22.52
2023-02-13T15:47:09.809Z,23.40
2023-02-13T15:49:43.537Z,25.55
2023-02-13T15:54:49.579Z,22.95
2023-02-13T15:57:16.772Z,21.52
2023-02-13T15:59:43.648Z,22.77
2023-02-13T16:02:47.814Z,24.48
2023-02-13T16:05:17.137Z,22.20
2023-02-13T16:07:53.650Z,21.77
2023-02-13T16:10:36.648Z,22.88
2023-02-13T16:13:05.805Z,22.63
2023-02-13T16:15:36.638Z,24.35
2023-02-13T16:18:04.072Z,23.35
2023-02-13T16:20:34.117Z,23.55
2023-02-13T16:23:21.087Z,23.48
2023-02-13T16:25:48.718Z,22.35
2023-02-13T16:28:19.875Z,24.38
2023-02-13T16:30:57.109Z,23.58
2023-02-13T16:33:28.448Z,23.40
2023-02-13T16:36:00.417Z,27.48
2023-02-13T16:38:35.933Z,27.20
2023-02-13T16:41:04.375Z,27.77
2023-02-13T16:43:38.735Z,25.63
2023-02-13T16:46:20.069Z,25.85
2023-02-13T16:49:01.894Z,25.27
2023-02-13T16:51:36.719Z,26.83
2023-02-13T16:54:15.733Z,28.67
2023-02-13T16:56:47.073Z,27.27
2023-02-13T16:59:38.338Z,27.63
2023-02-13T17:02:14.400Z,27.17
2023-02-13T17:05:05.327Z,31.48
2023-02-13T17:07:36.338Z,37.85
2023-02-13T17:10:07.012Z,27.88
2023-02-13T17:12:37.445Z,24.55
2023-02-13T17:15:05.120Z,22.38
2023-02-13T17:17:34.862Z,22.02
2023-02-13T17:20:04.108Z,22.50
2023-02-13T17:22:40.258Z,24.17
2023-02-13T17:25:15.851Z,24.15
2023-02-13T17:27:43.063Z,23.40
2023-02-13T17:30:15.439Z,23.65
2023-02-13T17:32:42.537Z,24.45
2023-02-13T17:35:11.261Z,25.00
2023-02-13T17:37:38.508Z,24.23
2023-02-13T17:40:05.682Z,25.85
2023-02-13T17:42:36.327Z,24.15
2023-02-13T17:45:02.906Z,27.45
2023-02-13T17:47:30.446Z,26.33
2023-02-13T17:50:08.269Z,24.10
2023-02-13T17:52:35.711Z,23.55
2023-02-13T17:55:04.882Z,24.42
2023-02-13T17:57:31.386Z,24.85
2023-02-13T17:59:59.193Z,24.95
2023-02-13T18:02:27.200Z,24.25
2023-02-13T18:04:53.771Z,24.15
2023-02-13T18:07:22.881Z,24.83
2023-02-13T18:09:49.454Z,26.08
2023-02-13T18:12:19.063Z,26.40
2023-02-13T18:14:45.882Z,28.17
2023-02-13T18:17:12.641Z,28.63
2023-02-13T18:19:39.600Z,27.27
2023-02-13T18:22:07.854Z,27.63
2023-02-13T18:24:36.522Z,25.38
2023-02-13T18:27:05.490Z,25.13
2023-02-13T18:29:32.011Z,25.73
2023-02-13T18:31:58.583Z,25.60
2023-02-13T18:34:25.179Z,23.85
2023-02-13T18:36:51.828Z,24.23
2023-02-13T18:39:20.875Z,23.33
2023-02-13T18:41:50.400Z,23.40
2023-02-13T18:44:27.007Z,24.25
2023-02-13T18:46:54.508Z,24.25
2023-02-13T18:49:21.026Z,25.42
2023-02-13T18:51:47.600Z,26.60
2023-02-13T18:54:14.165Z,24.20
2023-02-13T18:56:40.635Z,24.75
2023-02-13T18:59:07.164Z,25.10
2023-02-13T19:01:35.365Z,26.23
2023-02-13T19:04:02.938Z,24.95
2023-02-13T19:06:32.442Z,24.23
2023-02-13T19:08:59.564Z,25.15
2023-02-13T19:11:27.167Z,25.23
2023-02-13T19:14:00.444Z,25.85
2023-02-13T19:16:29.278Z,25.17
2023-02-13T19:18:58.711Z,27.63
2023-02-13T19:21:28.348Z,26.48
2023-02-13T19:23:55.568Z,26.65
2023-02-13T19:26:24.240Z,26.02
2023-02-13T19:28:51.101Z,25.88
2023-02-13T19:31:24.996Z,25.90
2023-02-13T19:33:52.318Z,27.23
2023-02-13T19:36:21.422Z,27.08
2023-02-13T19:38:52.776Z,30.98
2023-02-13T19:41:19.362Z,40.30
2023-02-13T19:43:53.591Z,33.50
2023-02-13T19:46:26.879Z,37.60
2023-02-13T19:48:55.867Z,40.78
2023-02-13T19:51:25.209Z,50.80
2023-02-13T19:53:59.051Z,66.95
2023-02-13T19:56:27.423Z,57.30
2023-02-13T19:58:56.501Z,49.85
2023-02-13T20:01:25.340Z,35.33
2023-02-13T20:03:52.613Z,41.65
2023-02-13T20:06:33.373Z,49.22
2023-02-13T20:09:02.082Z,40.60
2023-02-13T20:11:31.186Z,37.92
2023-02-13T20:14:01.715Z,49.42
2023-02-13T20:16:32.807Z,47.38
2023-02-13T20:19:01.755Z,48.63
2023-02-13T20:21:28.228Z,45.30
2023-02-13T20:23:54.639Z,34.55
2023-02-13T20:26:21.273Z,36.15
2023-02-13T20:28:48.233Z,37.85
2023-02-13T20:31:16.449Z,36.50
2023-02-13T20:33:46.629Z,36.33
2023-02-13T20:36:19.501Z,39.53
2023-02-13T20:38:46.196Z,39.20
2023-02-13T20:41:15.870Z,36.78
2023-02-13T20:43:42.999Z,37.75
2023-02-13T20:46:10.414Z,40.25
2023-02-13T20:48:37.732Z,36.50
2023-02-13T20:51:07.407Z,43.25
2023-02-13T20:53:34.882Z,37.88
2023-02-13T20:56:13.366Z,69.13
2023-02-13T20:58:41.701Z,54.13
2023-02-13T21:01:18.314Z,40.42
2023-02-13T21:03:47.841Z,34.72
2023-02-13T21:06:14.520Z,32.83
2023-02-13T21:08:43.140Z,34.60
2023-02-13T21:11:11.951Z,35.22
2023-02-13T21:13:40.199Z,68.75
2023-02-13T21:16:14.328Z,64.28
2023-02-13T21:18:42.118Z,45.72
2023-02-13T21:21:10.867Z,37.92
2023-02-13T21:23:39.817Z,31.85
2023-02-13T21:26:13.115Z,31.42
2023-02-13T21:28:40.880Z,31.88
2023-02-13T21:31:08.672Z,30.80
2023-02-13T21:33:35.265Z,31.88
2023-02-13T21:36:03.495Z,32.25
2023-02-13T21:38:30.169Z,33.45
2023-02-13T21:41:06.601Z,32.17
2023-02-13T21:43:37.684Z,32.72
2023-02-13T21:46:13.701Z,31.85
2023-02-13T21:48:41.209Z,31.67
2023-02-13T21:51:10.463Z,31.88
2023-02-13T21:53:37.699Z,32.85
2023-02-13T21:56:10.772Z,35.13
2023-02-13T21:58:39.520Z,33.13
2023-02-13T22:01:25.945Z,33.08
2023-02-13T22:04:00.314Z,30.65
2023-02-13T22:06:30.284Z,33.63
2023-02-13T22:09:02.278Z,38.78
2023-02-13T22:11:29.094Z,42.30
2023-02-13T22:13:57.195Z,43.05
2023-02-13T22:16:23.940Z,73.95
2023-02-13T22:18:50.681Z,46.72
2023-02-13T22:21:19.501Z,37.60
2023-02-13T22:23:47.322Z,31.60
2023-02-13T22:26:23.996Z,29.85
2023-02-13T22:28:51.877Z,26.45
2023-02-13T22:31:19.138Z,26.10
2023-02-13T22:33:55.324Z,26.58
2023-02-13T22:36:29.278Z,27.45
2023-02-13T22:38:55.815Z,26.70
2023-02-13T22:41:26.753Z,27.77
2023-02-13T22:43:53.558Z,31.67
2023-02-13T22:46:23.348Z,34.00
2023-02-13T22:48:53.249Z,34.13
2023-02-13T22:51:31.685Z,30.98
2023-02-13T22:53:59.204Z,30.13
2023-02-13T22:56:26.817Z,30.70
2023-02-13T22:58:53.613Z,28.77
2023-02-13T23:01:22.134Z,27.70
2023-02-13T23:03:51.350Z,28.30
2023-02-13T23:06:18.502Z,28.17
2023-02-13T23:08:45.262Z,28.55
2023-02-13T23:11:33.406Z,27.73
2023-02-13T23:14:00.247Z,29.80
2023-02-13T23:16:27.508Z,28.95
2023-02-13T23:18:56.580Z,28.95
2023-02-13T23:21:24.067Z,30.38
2023-02-13T23:23:50.970Z,30.15
2023-02-13T23:26:17.526Z,30.55
2023-02-13T23:28:44.003Z,30.70
2023-02-13T23:31:10.628Z,29.15
2023-02-13T23:33:37.146Z,30.52
2023-02-13T23:36:03.860Z,30.48
2023-02-13T23:38:30.548Z,28.23
2023-02-13T23:40:57.272Z,28.77
2023-02-13T23:43:23.909Z,29.35
2023-02-13T23:45:50.361Z,26.15
2023-02-13T23:48:16.856Z,27.27
2023-02-13T23:50:47.385Z,26.63
2023-02-13T23:53:14.120Z,26.52
2023-02-13T23:55:40.577Z,29.98
2023-02-13T23:58:07.019Z,28.67
